createdAt,value
2019-02-14T00:01:02.684Z,16.27
2019-02-14T00:02:12.294Z,16.80
2019-02-14T00:03:20.326Z,21.53
2019-02-14T00:04:28.851Z,20.13
2019-02-14T00:05:37.168Z,19.57
2019-02-14T00:06:45.309Z,16.60
2019-02-14T00:07:53.584Z,16.13
2019-02-14T00:09:01.778Z,21.30
2019-02-14T00:10:11.371Z,16.07
2019-02-14T00:11:19.703Z,21.57
2019-02-14T00:12:28.008Z,23.40
2019-02-14T00:13:35.944Z,11.10
2019-02-14T00:14:44.081Z,16.70
2019-02-14T00:15:53.005Z,24.33
2019-02-14T00:17:01.119Z,23.73
2019-02-14T00:18:09.653Z,9.13
2019-02-14T00:19:17.946Z,10.93
2019-02-14T00:20:26.048Z,18.03
2019-02-14T00:21:33.991Z,22.33
2019-02-14T00:22:42.332Z,18.37
2019-02-14T00:23:50.315Z,21.03
2019-02-14T00:24:58.809Z,16.27
2019-02-14T00:26:06.999Z,10.87
2019-02-14T00:27:14.784Z,13.43
2019-02-14T00:28:22.716Z,21.03
2019-02-14T00:29:30.832Z,22.07
2019-02-14T00:30:39.095Z,12.23
2019-02-14T00:31:48.373Z,9.83
2019-02-14T00:32:56.375Z,10.17
2019-02-14T00:34:04.878Z,12.40
2019-02-14T00:35:13.565Z,20.60
2019-02-14T00:36:21.676Z,17.10
2019-02-14T00:37:29.630Z,12.00
2019-02-14T00:38:37.896Z,15.77
2019-02-14T00:39:46.305Z,15.27
2019-02-14T00:40:54.696Z,17.03
2019-02-14T00:42:02.533Z,9.50
2019-02-14T00:43:10.624Z,18.60
2019-02-14T00:44:18.753Z,20.30
2019-02-14T00:45:26.709Z,27.67
2019-02-14T00:46:34.847Z,15.07
2019-02-14T00:47:43.286Z,10.90
2019-02-14T00:48:51.513Z,15.07
2019-02-14T00:49:59.616Z,19.43
2019-02-14T00:51:07.790Z,17.10
2019-02-14T00:52:15.609Z,14.57
2019-02-14T00:53:24.287Z,15.37
2019-02-14T00:54:32.309Z,18.67
2019-02-14T00:55:40.537Z,16.03
2019-02-14T00:56:48.561Z,12.23
2019-02-14T00:57:58.211Z,14.53
2019-02-14T00:59:06.155Z,18.83
2019-02-14T01:00:14.123Z,18.73
2019-02-14T01:01:22.333Z,14.23
2019-02-14T01:02:30.447Z,14.57
2019-02-14T01:03:40.293Z,14.70
2019-02-14T01:04:49.347Z,10.87
2019-02-14T01:05:57.980Z,13.40
2019-02-14T01:07:06.817Z,21.57
2019-02-14T01:08:15.307Z,15.03
2019-02-14T01:09:23.396Z,17.77
2019-02-14T01:10:31.488Z,16.90
2019-02-14T01:11:39.834Z,11.17
2019-02-14T01:12:48.114Z,19.97
2019-02-14T01:13:56.460Z,22.53
2019-02-14T01:15:06.849Z,15.83
2019-02-14T01:16:15.365Z,21.07
2019-02-14T01:17:23.518Z,17.20
2019-02-14T01:18:31.817Z,14.03
2019-02-14T01:19:39.854Z,26.17
2019-02-14T01:20:47.991Z,9.97
2019-02-14T01:21:56.235Z,12.43
2019-02-14T01:23:04.347Z,18.20
2019-02-14T01:24:12.770Z,18.00
2019-02-14T01:25:21.165Z,16.10
2019-02-14T01:26:29.262Z,22.60
2019-02-14T01:27:37.647Z,12.50
2019-02-14T01:28:46.084Z,11.30
2019-02-14T01:29:55.553Z,14.63
2019-02-14T01:31:03.826Z,17.83
2019-02-14T01:32:12.413Z,12.90
2019-02-14T01:33:20.410Z,16.13
2019-02-14T01:34:28.787Z,14.53
2019-02-14T01:35:42.018Z,17.63
2019-02-14T01:36:46.813Z,21.97
2019-02-14T01:37:55.120Z,16.50
2019-02-14T01:39:03.941Z,19.07
2019-02-14T01:40:12.237Z,17.67
2019-02-14T01:41:20.891Z,21.13
2019-02-14T01:42:28.923Z,18.23
2019-02-14T01:43:37.165Z,13.23
2019-02-14T01:44:48.369Z,14.17
2019-02-14T01:45:56.514Z,13.47
2019-02-14T01:47:04.816Z,12.00
2019-02-14T01:48:12.908Z,12.17
2019-02-14T01:49:21.435Z,15.20
2019-02-14T01:50:29.502Z,20.33
2019-02-14T01:51:37.576Z,11.73
2019-02-14T01:52:45.987Z,16.00
2019-02-14T01:53:54.214Z,20.17
2019-02-14T01:55:02.519Z,14.20
2019-02-14T01:56:10.631Z,11.70
2019-02-14T01:57:18.935Z,13.50
2019-02-14T01:58:27.126Z,10.73
2019-02-14T01:59:35.472Z,8.03
2019-02-14T02:00:43.460Z,9.77
2019-02-14T02:01:51.687Z,11.50
2019-02-14T02:02:59.807Z,20.00
2019-02-14T02:04:07.783Z,13.53
2019-02-14T02:05:16.003Z,17.27
2019-02-14T02:06:24.082Z,17.23
2019-02-14T02:07:32.585Z,16.93
2019-02-14T02:08:40.738Z,12.23
2019-02-14T02:09:49.215Z,11.90
2019-02-14T02:10:57.145Z,18.87
2019-02-14T02:12:05.074Z,13.83
2019-02-14T02:13:13.214Z,10.77
2019-02-14T02:14:20.956Z,12.30
2019-02-14T02:15:29.388Z,12.13
2019-02-14T02:16:37.533Z,8.97
2019-02-14T02:17:45.681Z,25.83
2019-02-14T02:18:54.031Z,14.13
2019-02-14T02:20:02.375Z,22.03
2019-02-14T02:21:10.532Z,14.30
2019-02-14T02:22:18.869Z,16.00
2019-02-14T02:23:26.888Z,11.60
2019-02-14T02:24:35.338Z,20.73
2019-02-14T02:25:43.721Z,12.47
2019-02-14T02:26:52.093Z,12.77
2019-02-14T02:28:00.532Z,16.80
2019-02-14T02:29:08.794Z,17.00
2019-02-14T02:30:17.495Z,13.30
2019-02-14T02:31:25.834Z,19.40
2019-02-14T02:32:33.932Z,17.33
2019-02-14T02:33:42.179Z,14.97
2019-02-14T02:34:50.178Z,18.93
2019-02-14T02:36:00.640Z,13.57
2019-02-14T02:37:08.676Z,13.20
2019-02-14T02:38:16.853Z,15.77
2019-02-14T02:39:24.791Z,11.53
2019-02-14T02:40:33.084Z,9.17
2019-02-14T02:41:41.235Z,15.47
2019-02-14T02:42:49.342Z,15.43
2019-02-14T02:43:57.443Z,13.43
2019-02-14T02:45:09.731Z,14.83
2019-02-14T02:46:17.842Z,19.53
2019-02-14T02:47:26.122Z,23.30
2019-02-14T02:48:34.163Z,28.27
2019-02-14T02:49:42.629Z,11.67
2019-02-14T02:50:50.927Z,31.03
2019-02-14T02:51:59.477Z,19.27
2019-02-14T02:53:07.502Z,8.40
2019-02-14T02:54:15.579Z,11.87
2019-02-14T02:55:23.823Z,14.10
2019-02-14T02:56:31.968Z,15.23
2019-02-14T02:57:40.483Z,14.83
2019-02-14T02:58:48.490Z,20.13
2019-02-14T02:59:56.627Z,15.23
2019-02-14T03:01:04.943Z,15.83
2019-02-14T03:02:13.375Z,16.10
2019-02-14T03:03:21.950Z,14.07
2019-02-14T03:04:30.099Z,26.10
2019-02-14T03:05:38.583Z,14.97
2019-02-14T03:06:46.628Z,14.73
2019-02-14T03:07:54.642Z,13.97
2019-02-14T03:09:04.738Z,12.47
2019-02-14T03:10:15.116Z,13.57
2019-02-14T03:11:23.334Z,13.73
2019-02-14T03:12:31.665Z,13.13
2019-02-14T03:13:40.188Z,12.87
2019-02-14T03:14:48.422Z,25.30
2019-02-14T03:15:57.169Z,16.90
2019-02-14T03:17:06.232Z,17.67
2019-02-14T03:18:15.251Z,20.83
2019-02-14T03:19:23.853Z,17.33
2019-02-14T03:20:32.155Z,18.90
2019-02-14T03:21:40.361Z,11.67
2019-02-14T03:22:48.862Z,16.60
2019-02-14T03:23:57.301Z,18.70
2019-02-14T03:25:09.658Z,10.43
2019-02-14T03:26:17.865Z,21.77
2019-02-14T03:27:26.313Z,15.53
2019-02-14T03:28:34.588Z,20.33
2019-02-14T03:29:43.375Z,17.17
2019-02-14T03:30:51.387Z,7.90
2019-02-14T03:31:59.694Z,15.63
2019-02-14T03:33:08.105Z,15.57
2019-02-14T03:34:16.489Z,14.03
2019-02-14T03:35:25.054Z,10.63
2019-02-14T03:36:32.899Z,10.80
2019-02-14T03:37:41.754Z,11.83
2019-02-14T03:38:49.880Z,15.73
2019-02-14T03:39:57.869Z,20.97
2019-02-14T03:41:06.054Z,18.63
2019-02-14T03:42:14.181Z,7.50
2019-02-14T03:43:22.727Z,16.57
2019-02-14T03:44:30.927Z,11.87
2019-02-14T03:45:39.612Z,16.07
2019-02-14T03:46:48.504Z,11.60
2019-02-14T03:47:56.571Z,13.77
2019-02-14T03:49:05.028Z,24.60
2019-02-14T03:50:15.208Z,18.70
2019-02-14T03:51:23.337Z,9.40
2019-02-14T03:52:31.592Z,10.50
2019-02-14T03:53:40.378Z,11.50
2019-02-14T03:54:48.405Z,14.30
2019-02-14T03:55:56.597Z,8.57
2019-02-14T03:57:05.587Z,10.60
2019-02-14T03:58:13.661Z,13.33
2019-02-14T03:59:21.914Z,10.23
2019-02-14T04:00:30.283Z,10.77
2019-02-14T04:01:38.737Z,9.43
2019-02-14T04:02:46.982Z,8.83
2019-02-14T04:03:55.627Z,14.60
2019-02-14T04:05:04.048Z,7.77
2019-02-14T04:06:12.294Z,12.57
2019-02-14T04:07:21.014Z,10.47
2019-02-14T04:08:29.365Z,15.70
2019-02-14T04:09:37.410Z,14.10
2019-02-14T04:10:45.449Z,18.03
2019-02-14T04:11:54.027Z,14.10
2019-02-14T04:13:02.207Z,6.70
2019-02-14T04:14:11.233Z,13.63
2019-02-14T04:15:20.176Z,6.67
2019-02-14T04:16:28.088Z,16.67
2019-02-14T04:17:36.418Z,9.90
2019-02-14T04:18:45.204Z,13.90
2019-02-14T04:19:53.483Z,12.77
2019-02-14T04:21:01.535Z,14.73
2019-02-14T04:22:09.961Z,15.73
2019-02-14T04:23:17.990Z,14.30
2019-02-14T04:24:26.671Z,11.13
2019-02-14T04:25:34.983Z,11.60
2019-02-14T04:26:43.783Z,16.87
2019-02-14T04:27:52.122Z,10.93
2019-02-14T04:29:00.483Z,11.80
2019-02-14T04:30:14.565Z,7.43
2019-02-14T04:31:23.280Z,12.60
2019-02-14T04:32:33.184Z,19.87
2019-02-14T04:33:41.553Z,14.20
2019-02-14T04:34:49.890Z,12.10
2019-02-14T04:35:57.935Z,8.97
2019-02-14T04:37:06.286Z,9.03
2019-02-14T04:38:14.428Z,8.90
2019-02-14T04:39:23.399Z,18.07
2019-02-14T04:40:33.638Z,11.67
2019-02-14T04:41:41.954Z,13.43
2019-02-14T04:42:50.088Z,12.87
2019-02-14T04:43:58.420Z,9.97
2019-02-14T04:45:08.966Z,11.43
2019-02-14T04:46:17.237Z,14.30
2019-02-14T04:47:26.212Z,10.23
2019-02-14T04:48:34.661Z,12.70
2019-02-14T04:49:43.459Z,10.23
2019-02-14T04:50:51.743Z,16.53
2019-02-14T04:51:59.932Z,15.67
2019-02-14T04:53:08.349Z,5.70
2019-02-14T04:54:16.949Z,15.13
2019-02-14T04:55:25.182Z,19.70
2019-02-14T04:56:33.555Z,11.47
2019-02-14T04:57:41.643Z,14.73
2019-02-14T04:58:50.082Z,10.27
2019-02-14T04:59:58.054Z,5.73
2019-02-14T05:01:06.867Z,6.73
2019-02-14T05:02:15.054Z,15.27
2019-02-14T05:03:23.356Z,12.90
2019-02-14T05:04:32.280Z,12.20
2019-02-14T05:05:40.367Z,11.83
2019-02-14T05:06:49.047Z,15.97
2019-02-14T05:07:57.197Z,16.50
2019-02-14T05:09:08.459Z,13.37
2019-02-14T05:10:16.596Z,11.97
2019-02-14T05:11:24.645Z,10.47
2019-02-14T05:12:32.979Z,14.97
2019-02-14T05:13:41.836Z,16.30
2019-02-14T05:14:50.490Z,9.83
2019-02-14T05:15:58.912Z,7.47
2019-02-14T05:17:07.128Z,14.37
2019-02-14T05:18:15.638Z,15.87
2019-02-14T05:19:24.200Z,11.23
2019-02-14T05:20:32.813Z,13.53
2019-02-14T05:21:41.217Z,13.87
2019-02-14T05:22:49.285Z,19.60
2019-02-14T05:23:57.879Z,12.00
2019-02-14T05:25:08.800Z,16.30
2019-02-14T05:26:17.573Z,17.13
2019-02-14T05:27:25.585Z,15.90
2019-02-14T05:28:33.776Z,8.93
2019-02-14T05:29:42.487Z,13.10
2019-02-14T05:30:51.208Z,8.87
2019-02-14T05:31:59.522Z,9.47
2019-02-14T05:33:08.110Z,15.27
2019-02-14T05:34:16.566Z,14.00
2019-02-14T05:35:25.364Z,13.33
2019-02-14T05:36:33.838Z,10.93
2019-02-14T05:37:42.083Z,12.80
2019-02-14T05:38:50.620Z,13.27
2019-02-14T05:39:59.093Z,14.70
2019-02-14T05:41:07.501Z,11.50
2019-02-14T05:42:15.961Z,14.80
2019-02-14T05:43:24.734Z,10.53
2019-02-14T05:44:33.804Z,23.03
2019-02-14T05:45:42.583Z,11.40
2019-02-14T05:46:51.127Z,6.73
2019-02-14T05:47:59.580Z,19.13
2019-02-14T05:49:07.813Z,9.33
2019-02-14T05:50:16.998Z,11.87
2019-02-14T05:51:25.012Z,16.60
2019-02-14T05:52:33.314Z,18.13
2019-02-14T05:53:49.130Z,12.03
2019-02-14T05:54:57.584Z,16.23
2019-02-14T05:56:06.289Z,19.63
2019-02-14T05:57:14.757Z,13.30
2019-02-14T05:58:23.859Z,13.93
2019-02-14T05:59:32.349Z,16.60
2019-02-14T06:00:40.775Z,6.77
2019-02-14T06:01:49.657Z,13.97
2019-02-14T06:02:58.471Z,10.83
2019-02-14T06:05:16.358Z,19.67
2019-02-14T06:06:25.020Z,15.97
2019-02-14T06:07:33.346Z,8.03
2019-02-14T06:08:41.700Z,14.90
2019-02-14T06:09:50.053Z,14.50
2019-02-14T06:10:58.435Z,9.67
2019-02-14T06:12:06.734Z,15.00
2019-02-14T06:13:14.859Z,9.57
2019-02-14T06:14:23.253Z,7.13
2019-02-14T06:15:31.366Z,9.50
2019-02-14T06:16:39.551Z,10.37
2019-02-14T06:17:48.055Z,11.37
2019-02-14T06:18:56.259Z,9.10
2019-02-14T06:20:05.053Z,11.00
2019-02-14T06:21:13.589Z,11.93
2019-02-14T06:22:21.777Z,14.60
2019-02-14T06:23:30.204Z,9.90
2019-02-14T06:24:38.893Z,13.57
2019-02-14T06:25:49.492Z,10.13
2019-02-14T06:26:57.953Z,14.87
2019-02-14T06:28:12.371Z,11.93
2019-02-14T06:29:20.798Z,16.30
2019-02-14T06:30:29.238Z,16.93
2019-02-14T06:31:37.809Z,7.80
2019-02-14T06:32:46.256Z,8.50
2019-02-14T06:33:55.120Z,12.83
2019-02-14T06:35:03.921Z,10.27
2019-02-14T06:36:12.335Z,11.50
2019-02-14T06:37:21.033Z,11.37
2019-02-14T06:38:29.905Z,5.90
2019-02-14T06:39:39.480Z,15.60
2019-02-14T06:40:48.800Z,11.70
2019-02-14T06:41:57.039Z,10.30
2019-02-14T06:43:05.525Z,14.70
2019-02-14T06:44:13.984Z,12.47
2019-02-14T06:45:22.328Z,14.10
2019-02-14T06:46:30.678Z,15.60
2019-02-14T06:47:39.441Z,19.10
2019-02-14T06:48:47.814Z,12.30
2019-02-14T06:49:56.259Z,15.57
2019-02-14T06:51:04.717Z,14.80
2019-02-14T06:52:12.984Z,20.97
2019-02-14T06:53:21.439Z,12.63
2019-02-14T06:54:29.827Z,19.43
2019-02-14T06:55:38.320Z,10.97
2019-02-14T06:56:47.082Z,8.07
2019-02-14T06:57:55.706Z,13.43
2019-02-14T06:59:03.895Z,20.87
2019-02-14T07:00:16.652Z,20.10
2019-02-14T07:01:25.282Z,10.00
2019-02-14T07:02:34.174Z,16.97
2019-02-14T07:03:43.197Z,12.97
2019-02-14T07:04:52.151Z,18.00
2019-02-14T07:06:00.844Z,15.03
2019-02-14T07:07:09.281Z,13.10
2019-02-14T07:08:26.777Z,12.07
2019-02-14T07:09:35.405Z,15.93
2019-02-14T07:10:44.702Z,7.53
2019-02-14T07:11:53.411Z,13.33
2019-02-14T07:13:03.463Z,10.03
2019-02-14T07:14:12.039Z,14.33
2019-02-14T07:15:20.486Z,12.43
2019-02-14T07:16:29.382Z,12.67
2019-02-14T07:17:38.092Z,9.37
2019-02-14T07:18:46.980Z,9.67
2019-02-14T07:19:55.527Z,17.87
2019-02-14T07:21:04.196Z,11.57
2019-02-14T07:22:12.765Z,14.23
2019-02-14T07:23:21.682Z,11.13
2019-02-14T07:24:30.059Z,8.80
2019-02-14T07:25:39.203Z,12.00
2019-02-14T07:26:48.400Z,10.03
2019-02-14T07:27:57.012Z,13.40
2019-02-14T07:29:05.834Z,20.03
2019-02-14T07:30:27.195Z,17.33
2019-02-14T07:31:36.232Z,10.10
2019-02-14T07:32:45.072Z,13.07
2019-02-14T07:33:53.356Z,12.83
2019-02-14T07:35:07.910Z,17.40
2019-02-14T07:36:16.316Z,13.73
2019-02-14T07:37:27.034Z,9.57
2019-02-14T07:38:35.956Z,12.30
2019-02-14T07:39:44.468Z,17.97
2019-02-14T07:40:53.000Z,11.00
2019-02-14T07:42:01.630Z,16.07
2019-02-14T07:43:10.331Z,10.73
2019-02-14T07:44:19.343Z,11.13
2019-02-14T07:45:28.619Z,11.03
2019-02-14T07:46:37.106Z,15.37
2019-02-14T07:47:45.900Z,10.10
2019-02-14T07:48:54.140Z,12.33
2019-02-14T07:50:02.584Z,15.07
2019-02-14T07:51:11.018Z,10.57
2019-02-14T07:52:25.029Z,13.17
2019-02-14T07:53:29.724Z,10.77
2019-02-14T07:54:38.064Z,11.40
2019-02-14T07:55:46.487Z,14.93
2019-02-14T07:56:56.693Z,14.53
2019-02-14T07:58:06.638Z,14.50
2019-02-14T07:59:15.069Z,18.00
2019-02-14T08:00:23.735Z,18.63
2019-02-14T08:01:32.277Z,10.53
2019-02-14T08:02:41.457Z,16.10
2019-02-14T08:03:50.577Z,16.53
2019-02-14T08:04:59.115Z,14.07
2019-02-14T08:06:07.606Z,12.77
2019-02-14T08:07:16.293Z,11.17
2019-02-14T08:08:24.912Z,9.87
2019-02-14T08:09:33.266Z,14.17
2019-02-14T08:10:42.491Z,13.60
2019-02-14T08:11:56.448Z,15.53
2019-02-14T08:13:08.704Z,11.27
2019-02-14T08:14:19.448Z,8.90
2019-02-14T08:15:28.105Z,12.73
2019-02-14T08:16:39.757Z,18.40
2019-02-14T08:17:49.574Z,12.77
2019-02-14T08:19:01.601Z,12.77
2019-02-14T08:20:13.570Z,11.77
2019-02-14T08:21:21.699Z,10.03
2019-02-14T08:22:30.724Z,10.63
2019-02-14T08:23:39.162Z,13.17
2019-02-14T08:24:49.019Z,16.97
2019-02-14T08:25:57.460Z,13.60
2019-02-14T08:27:06.134Z,12.97
2019-02-14T08:28:14.538Z,8.07
2019-02-14T08:29:23.353Z,10.23
2019-02-14T08:30:31.686Z,12.40
2019-02-14T08:31:41.386Z,17.40
2019-02-14T08:32:49.657Z,9.90
2019-02-14T08:33:57.898Z,10.13
2019-02-14T08:35:07.607Z,10.07
2019-02-14T08:36:15.511Z,9.20
2019-02-14T08:37:24.008Z,9.55
2019-02-14T08:38:32.278Z,7.50
2019-02-14T08:39:41.630Z,2.90
2019-02-14T08:40:50.242Z,5.17
2019-02-14T08:41:58.749Z,5.83
2019-02-14T08:43:07.850Z,5.97
2019-02-14T08:44:16.322Z,6.30
2019-02-14T08:45:24.824Z,6.17
2019-02-14T08:46:33.077Z,7.80
2019-02-14T08:47:42.155Z,7.15
2019-02-14T08:48:50.622Z,5.93
2019-02-14T08:49:58.767Z,5.92
2019-02-14T08:51:07.079Z,9.03
2019-02-14T08:52:15.457Z,5.03
2019-02-14T08:53:27.589Z,8.80
2019-02-14T08:54:36.102Z,9.83
2019-02-14T08:55:44.143Z,6.73
2019-02-14T08:56:52.488Z,4.80
2019-02-14T08:58:00.889Z,4.37
2019-02-14T08:59:09.329Z,7.80
2019-02-14T09:00:18.699Z,5.57
2019-02-14T09:01:26.857Z,6.63
2019-02-14T09:02:35.764Z,7.33
2019-02-14T09:03:44.107Z,5.80
2019-02-14T09:04:52.628Z,7.07
2019-02-14T09:06:01.253Z,4.80
2019-02-14T09:07:11.339Z,5.20
2019-02-14T09:08:19.783Z,7.60
2019-02-14T09:09:28.100Z,8.07
2019-02-14T09:10:36.677Z,10.03
2019-02-14T09:11:45.172Z,7.23
2019-02-14T09:12:53.449Z,7.50
2019-02-14T09:14:02.361Z,9.47
2019-02-14T09:15:15.834Z,10.43
2019-02-14T09:16:24.379Z,5.87
2019-02-14T09:17:32.244Z,7.43
2019-02-14T09:18:40.724Z,7.20
2019-02-14T09:19:49.324Z,9.63
2019-02-14T09:20:57.838Z,5.40
2019-02-14T09:22:06.193Z,4.27
2019-02-14T09:23:14.812Z,3.70
2019-02-14T09:24:23.249Z,7.53
2019-02-14T09:25:31.429Z,5.70
2019-02-14T09:26:40.114Z,4.93
2019-02-14T09:27:48.923Z,4.83
2019-02-14T09:28:57.081Z,9.77
2019-02-14T09:30:07.886Z,4.90
2019-02-14T09:31:15.937Z,7.50
2019-02-14T09:32:25.846Z,5.50
2019-02-14T09:33:33.891Z,7.37
2019-02-14T09:34:42.194Z,7.73
2019-02-14T09:35:50.419Z,5.43
2019-02-14T09:36:58.725Z,8.90
2019-02-14T09:38:07.261Z,5.90
2019-02-14T09:39:15.295Z,9.50
2019-02-14T09:40:23.290Z,8.87
2019-02-14T09:41:31.811Z,10.67
2019-02-14T09:42:40.329Z,3.70
2019-02-14T09:43:48.779Z,6.60
2019-02-14T09:44:57.473Z,7.60
2019-02-14T09:46:05.782Z,5.93
2019-02-14T09:47:13.928Z,7.00
2019-02-14T09:48:22.555Z,5.93
2019-02-14T09:49:30.627Z,4.90
2019-02-14T09:50:39.375Z,7.47
2019-02-14T09:51:47.583Z,7.37
2019-02-14T09:52:55.868Z,6.30
2019-02-14T09:54:04.367Z,5.97
2019-02-14T09:55:14.615Z,4.57
2019-02-14T09:56:23.014Z,4.57
2019-02-14T09:57:31.121Z,6.20
2019-02-14T09:58:39.605Z,5.47
2019-02-14T09:59:48.337Z,2.37
2019-02-14T10:00:57.050Z,2.70
2019-02-14T10:02:05.353Z,5.40
2019-02-14T10:03:14.247Z,4.57
2019-02-14T10:04:22.998Z,3.97
2019-02-14T10:05:32.928Z,2.90
2019-02-14T10:06:41.118Z,5.43
2019-02-14T10:07:49.731Z,7.30
2019-02-14T10:09:00.538Z,4.33
2019-02-14T10:10:12.525Z,5.47
2019-02-14T10:11:20.914Z,4.13
2019-02-14T10:12:29.591Z,7.40
2019-02-14T10:13:38.464Z,4.50
2019-02-14T10:14:46.780Z,6.37
2019-02-14T10:15:55.016Z,4.40
2019-02-14T10:17:03.297Z,4.97
2019-02-14T10:18:12.025Z,4.67
2019-02-14T10:19:20.145Z,6.63
2019-02-14T10:20:28.733Z,2.03
2019-02-14T10:21:36.926Z,2.77
2019-02-14T10:22:50.961Z,7.40
2019-02-14T10:23:59.066Z,3.80
2019-02-14T10:25:08.515Z,5.23
2019-02-14T10:26:16.785Z,4.87
2019-02-14T10:27:25.132Z,6.13
2019-02-14T10:28:33.164Z,5.73
2019-02-14T10:29:41.396Z,6.73
2019-02-14T10:30:49.684Z,4.90
2019-02-14T10:31:57.889Z,5.67
2019-02-14T10:33:05.938Z,3.93
2019-02-14T10:34:14.226Z,2.93
2019-02-14T10:35:22.455Z,4.93
2019-02-14T10:36:30.690Z,2.43
2019-02-14T10:37:38.758Z,2.80
2019-02-14T10:38:46.816Z,6.10
2019-02-14T10:39:55.169Z,5.77
2019-02-14T10:41:03.276Z,3.93
2019-02-14T10:42:11.456Z,4.53
2019-02-14T10:43:19.747Z,7.37
2019-02-14T10:44:27.956Z,7.58
2019-02-14T10:45:36.361Z,5.50
2019-02-14T10:46:44.355Z,4.33
2019-02-14T10:47:52.546Z,4.67
2019-02-14T10:49:00.672Z,4.00
2019-02-14T10:50:11.494Z,3.73
2019-02-14T10:51:19.937Z,5.97
2019-02-14T10:52:27.955Z,3.43
2019-02-14T10:53:36.545Z,4.43
2019-02-14T10:54:44.628Z,7.33
2019-02-14T10:55:52.654Z,6.90
2019-02-14T10:57:01.055Z,4.77
2019-02-14T10:58:09.230Z,4.13
2019-02-14T10:59:17.834Z,4.27
2019-02-14T11:00:27.347Z,4.60
2019-02-14T11:01:35.258Z,9.93
2019-02-14T11:02:43.314Z,5.83
2019-02-14T11:03:51.513Z,5.63
2019-02-14T11:04:59.488Z,6.73
2019-02-14T11:06:08.182Z,5.30
2019-02-14T11:07:16.457Z,3.03
2019-02-14T11:08:31.403Z,5.87
2019-02-14T11:09:34.783Z,4.37
2019-02-14T11:10:42.868Z,4.57
2019-02-14T11:11:51.027Z,8.60
2019-02-14T11:12:59.489Z,2.80
2019-02-14T11:14:07.970Z,5.87
2019-02-14T11:15:19.240Z,4.20
2019-02-14T11:16:27.401Z,3.17
2019-02-14T11:17:35.472Z,4.00
2019-02-14T11:18:48.684Z,4.40
2019-02-14T11:19:56.916Z,5.13
2019-02-14T11:21:05.286Z,6.57
2019-02-14T11:22:13.716Z,5.90
2019-02-14T11:23:22.327Z,3.40
2019-02-14T11:24:30.298Z,3.33
2019-02-14T11:25:40.026Z,5.13
2019-02-14T11:26:48.428Z,4.70
2019-02-14T11:27:56.763Z,6.27
2019-02-14T11:29:05.306Z,5.47
2019-02-14T11:30:15.619Z,4.30
2019-02-14T11:31:23.543Z,4.45
2019-02-14T11:32:32.452Z,4.00
2019-02-14T11:33:41.907Z,4.12
2019-02-14T11:34:50.439Z,8.47
2019-02-14T11:35:58.369Z,4.83
2019-02-14T11:37:06.752Z,4.03
2019-02-14T11:38:15.369Z,5.50
2019-02-14T11:39:24.071Z,7.28
2019-02-14T11:40:32.381Z,3.98
2019-02-14T11:41:40.567Z,5.87
2019-02-14T11:42:48.980Z,4.55
2019-02-14T11:43:57.178Z,2.83
2019-02-14T11:45:07.239Z,5.28
2019-02-14T11:46:15.835Z,4.47
2019-02-14T11:47:24.125Z,8.77
2019-02-14T11:48:32.608Z,4.90
2019-02-14T11:49:40.592Z,4.13
2019-02-14T11:50:48.954Z,5.13
2019-02-14T11:51:57.743Z,5.73
2019-02-14T11:53:13.845Z,4.65
2019-02-14T11:54:16.367Z,9.13
2019-02-14T11:55:24.286Z,7.87
2019-02-14T11:56:32.602Z,5.30
2019-02-14T11:57:40.929Z,6.00
2019-02-14T11:58:49.551Z,5.73
2019-02-14T11:59:57.771Z,6.23
2019-02-14T12:01:05.811Z,7.67
2019-02-14T12:02:14.014Z,11.53
2019-02-14T12:03:22.327Z,4.03
2019-02-14T12:04:30.698Z,8.63
2019-02-14T12:05:39.002Z,4.43
2019-02-14T12:06:47.214Z,4.63
2019-02-14T12:07:55.570Z,4.40
2019-02-14T12:09:04.918Z,4.30
2019-02-14T12:10:13.911Z,3.43
2019-02-14T12:11:22.032Z,3.23
2019-02-14T12:12:30.438Z,3.73
2019-02-14T12:13:39.542Z,3.67
2019-02-14T12:14:48.273Z,2.93
2019-02-14T12:15:56.460Z,2.73
2019-02-14T12:17:04.867Z,3.30
2019-02-14T12:18:13.123Z,6.33
2019-02-14T12:19:21.267Z,2.90
2019-02-14T12:20:29.405Z,5.10
2019-02-14T12:21:38.688Z,4.10
2019-02-14T12:22:47.474Z,5.00
2019-02-14T12:23:56.056Z,5.80
2019-02-14T12:25:05.130Z,5.03
2019-02-14T12:26:13.718Z,4.60
2019-02-14T12:27:21.873Z,3.63
2019-02-14T12:28:30.332Z,4.73
2019-02-14T12:29:38.839Z,2.75
2019-02-14T12:30:47.170Z,5.37
2019-02-14T12:31:55.363Z,3.35
2019-02-14T12:33:03.443Z,7.80
2019-02-14T12:34:11.859Z,2.92
2019-02-14T12:35:20.050Z,4.60
2019-02-14T12:36:28.356Z,4.15
2019-02-14T12:37:36.480Z,4.22
2019-02-14T12:38:44.955Z,4.65
2019-02-14T12:39:53.318Z,7.22
2019-02-14T12:41:01.587Z,3.58
2019-02-14T12:42:09.691Z,4.60
2019-02-14T12:43:17.642Z,4.70
2019-02-14T12:44:25.970Z,6.17
2019-02-14T12:45:34.170Z,4.67
2019-02-14T12:46:42.431Z,3.90
2019-02-14T12:47:50.643Z,3.93
2019-02-14T12:48:58.857Z,5.67
2019-02-14T12:50:10.373Z,5.03
2019-02-14T12:51:19.074Z,3.53
2019-02-14T12:52:27.344Z,4.80
2019-02-14T12:53:35.236Z,4.07
2019-02-14T12:54:43.746Z,5.83
2019-02-14T12:55:52.038Z,4.57
2019-02-14T12:57:00.386Z,3.53
2019-02-14T12:58:08.322Z,5.20
2019-02-14T12:59:16.730Z,5.53
2019-02-14T13:00:26.173Z,8.47
2019-02-14T13:01:34.597Z,4.67
2019-02-14T13:02:42.968Z,4.23
2019-02-14T13:03:51.621Z,5.47
2019-02-14T13:04:59.886Z,4.83
2019-02-14T13:06:08.326Z,3.17
2019-02-14T13:07:16.610Z,6.30
2019-02-14T13:08:25.126Z,6.13
2019-02-14T13:09:33.623Z,6.60
2019-02-14T13:10:41.939Z,6.60
2019-02-14T13:11:50.131Z,4.97
2019-02-14T13:12:58.135Z,3.93
2019-02-14T13:14:06.455Z,2.00
2019-02-14T13:15:23.873Z,7.90
2019-02-14T13:16:31.942Z,4.77
2019-02-14T13:17:40.215Z,5.73
2019-02-14T13:18:48.848Z,3.43
2019-02-14T13:19:57.081Z,5.73
2019-02-14T13:21:05.351Z,6.00
2019-02-14T13:22:13.941Z,8.43
2019-02-14T13:23:22.774Z,3.83
2019-02-14T13:24:31.092Z,4.23
2019-02-14T13:25:39.464Z,7.17
2019-02-14T13:26:48.468Z,4.73
2019-02-14T13:27:56.759Z,8.33
2019-02-14T13:29:05.243Z,6.20
2019-02-14T13:30:18.007Z,5.80
2019-02-14T13:31:31.879Z,3.20
2019-02-14T13:32:36.062Z,8.37
2019-02-14T13:33:44.555Z,7.53
2019-02-14T13:34:52.828Z,6.40
2019-02-14T13:36:01.587Z,5.23
2019-02-14T13:37:10.413Z,5.10
2019-02-14T13:38:18.377Z,5.78
2019-02-14T13:39:29.538Z,5.25
2019-02-14T13:40:36.525Z,5.97
2019-02-14T13:41:44.703Z,8.18
2019-02-14T13:42:53.038Z,5.72
2019-02-14T13:44:01.159Z,8.83
2019-02-14T13:45:16.289Z,9.73
2019-02-14T13:46:24.357Z,10.38
2019-02-14T13:47:32.588Z,13.18
2019-02-14T13:48:40.931Z,8.15
2019-02-14T13:49:49.768Z,10.43
2019-02-14T13:50:57.980Z,13.85
2019-02-14T13:52:06.347Z,10.10
2019-02-14T13:53:15.132Z,11.15
2019-02-14T13:54:23.316Z,10.35
2019-02-14T13:55:31.616Z,4.72
2019-02-14T13:56:39.967Z,10.90
2019-02-14T13:57:48.479Z,11.73
2019-02-14T13:58:56.574Z,9.45
2019-02-14T14:00:09.493Z,6.25
2019-02-14T14:01:18.551Z,8.38
2019-02-14T14:02:27.175Z,8.50
2019-02-14T14:03:35.746Z,6.53
2019-02-14T14:04:44.922Z,8.55
2019-02-14T14:05:53.408Z,6.33
2019-02-14T14:07:01.773Z,5.33
2019-02-14T14:08:10.299Z,10.75
2019-02-14T14:09:18.707Z,7.50
2019-02-14T14:10:27.213Z,5.03
2019-02-14T14:11:35.323Z,4.12
2019-02-14T14:12:43.647Z,5.67
2019-02-14T14:13:51.766Z,6.83
2019-02-14T14:15:02.003Z,3.98
2019-02-14T14:16:10.517Z,5.07
2019-02-14T14:17:18.364Z,5.40
2019-02-14T14:18:27.097Z,6.45
2019-02-14T14:19:35.326Z,6.97
2019-02-14T14:20:43.675Z,12.75
2019-02-14T14:21:52.472Z,5.90
2019-02-14T14:23:00.742Z,6.70
2019-02-14T14:24:09.525Z,8.43
2019-02-14T14:25:18.563Z,3.80
2019-02-14T14:26:27.121Z,6.73
2019-02-14T14:27:35.275Z,5.93
2019-02-14T14:28:43.869Z,6.60
2019-02-14T14:29:52.870Z,5.97
2019-02-14T14:31:01.417Z,5.97
2019-02-14T14:32:10.784Z,6.70
2019-02-14T14:33:19.011Z,7.80
2019-02-14T14:34:27.414Z,7.07
2019-02-14T14:35:35.723Z,3.20
2019-02-14T14:36:44.180Z,4.53
2019-02-14T14:37:52.524Z,8.07
2019-02-14T14:39:01.314Z,4.90
2019-02-14T14:40:16.158Z,7.33
2019-02-14T14:41:24.125Z,6.20
2019-02-14T14:42:36.970Z,6.97
2019-02-14T14:43:52.293Z,4.10
2019-02-14T14:45:00.474Z,5.60
2019-02-14T14:46:16.554Z,2.90
2019-02-14T14:47:24.503Z,2.60
2019-02-14T14:48:34.534Z,4.53
2019-02-14T14:49:42.630Z,5.50
2019-02-14T14:50:50.900Z,3.53
2019-02-14T14:51:59.234Z,4.30
2019-02-14T14:53:07.632Z,5.23
2019-02-14T14:54:15.989Z,4.50
2019-02-14T14:55:25.260Z,5.43
2019-02-14T14:56:34.295Z,4.53
2019-02-14T14:57:43.784Z,4.30
2019-02-14T14:58:53.215Z,8.73
2019-02-14T15:00:02.165Z,10.10